createdAt,value
2023-05-05T00:00:09.127Z,101241.00
2023-05-05T00:05:32.519Z,101238.00
2023-05-05T00:10:35.605Z,101240.20
2023-05-05T00:15:38.838Z,101241.60
2023-05-05T00:20:42.841Z,101248.40
2023-05-05T00:25:45.981Z,101248.20
2023-05-05T00:30:49.589Z,101249.40
2023-05-05T00:35:52.787Z,101245.60
2023-05-05T00:40:55.987Z,101244.00
2023-05-05T00:46:11.174Z,101245.40
2023-05-05T00:51:17.423Z,101238.40
2023-05-05T00:56:22.408Z,101235.40
2023-05-05T01:01:25.863Z,101232.80
2023-05-05T01:07:13.576Z,101224.80
2023-05-05T01:13:15.287Z,101225.80
2023-05-05T01:19:10.896Z,101231.20
2023-05-05T01:24:23.121Z,101223.60
2023-05-05T01:30:04.117Z,101221.80
2023-05-05T01:35:26.984Z,101224.20
2023-05-05T01:40:39.173Z,101223.60
2023-05-05T01:45:45.692Z,101222.00
2023-05-05T01:50:52.435Z,101224.60
2023-05-05T01:55:58.306Z,101223.00
2023-05-05T02:01:02.809Z,101221.80
2023-05-05T02:06:08.820Z,101221.60
2023-05-05T02:11:14.115Z,101221.00
2023-05-05T02:16:19.050Z,101214.40
2023-05-05T02:21:23.191Z,101217.80
2023-05-05T02:26:28.472Z,101218.80
2023-05-05T02:31:45.762Z,101210.80
2023-05-05T02:36:54.562Z,101217.20
2023-05-05T02:42:03.132Z,101218.80
2023-05-05T02:47:08.222Z,101221.80
2023-05-05T02:52:11.527Z,101228.00
2023-05-05T02:57:21.322Z,101230.60
2023-05-05T03:02:47.007Z,101239.00
2023-05-05T03:08:03.556Z,101242.20
2023-05-05T03:13:11.615Z,101241.00
2023-05-05T03:18:18.341Z,101240.00
2023-05-05T03:23:23.067Z,101246.00
2023-05-05T03:28:27.034Z,101249.40
2023-05-05T03:33:30.159Z,101251.00
2023-05-05T03:38:33.269Z,101255.20
2023-05-05T03:43:36.866Z,101258.80
2023-05-05T03:48:40.085Z,101263.00
2023-05-05T03:53:43.279Z,101265.00
2023-05-05T03:58:46.491Z,101265.40
2023-05-05T04:03:49.731Z,101281.80
2023-05-05T04:08:53.321Z,101281.20
2023-05-05T04:13:56.749Z,101283.60
2023-05-05T04:19:00.056Z,101287.80
2023-05-05T04:24:03.685Z,101296.40
2023-05-05T04:29:07.281Z,101297.60
2023-05-05T04:34:11.308Z,101298.20
2023-05-05T04:39:14.419Z,101299.60
2023-05-05T04:44:17.619Z,101299.60
2023-05-05T04:49:20.938Z,101305.60
2023-05-05T04:54:24.254Z,101313.00
2023-05-05T04:59:27.349Z,101312.80
2023-05-05T05:04:30.669Z,101315.20
2023-05-05T05:09:34.088Z,101324.20
2023-05-05T05:14:39.104Z,101337.80
2023-05-05T05:19:42.235Z,101343.00
2023-05-05T05:24:45.470Z,101345.40
2023-05-05T05:29:48.751Z,101344.60
2023-05-05T05:34:51.874Z,101350.60
2023-05-05T05:39:55.068Z,101348.40
2023-05-05T05:45:01.617Z,101359.60
2023-05-05T05:50:07.332Z,101353.20
2023-05-05T05:55:10.668Z,101356.60
2023-05-05T06:00:16.095Z,101365.40
2023-05-05T06:05:19.203Z,101360.00
2023-05-05T06:10:27.930Z,101371.40
2023-05-05T06:15:31.758Z,101373.00
2023-05-05T06:20:35.172Z,101370.00
2023-05-05T06:25:39.490Z,101370.80
2023-05-05T06:30:42.636Z,101379.80
2023-05-05T06:35:46.027Z,101377.80
2023-05-05T06:40:51.935Z,101376.80
2023-05-05T06:45:55.211Z,101378.00
2023-05-05T06:50:58.526Z,101386.40
2023-05-05T06:56:01.736Z,101377.80
2023-05-05T07:01:05.416Z,101386.40
2023-05-05T07:06:08.566Z,101382.80
2023-05-05T07:11:11.774Z,101381.80
2023-05-05T07:16:15.301Z,101383.80
2023-05-05T07:21:18.404Z,101385.20
2023-05-05T07:26:21.707Z,101379.40
2023-05-05T07:31:26.783Z,101382.20
2023-05-05T07:36:30.585Z,101380.60
2023-05-05T07:41:33.833Z,101385.80
2023-05-05T07:46:37.470Z,101384.20
2023-05-05T07:51:40.817Z,101385.00
2023-05-05T07:56:44.337Z,101387.00
2023-05-05T08:01:47.433Z,101397.00
2023-05-05T08:06:50.772Z,101396.40
2023-05-05T08:11:53.985Z,101399.40
2023-05-05T08:16:57.729Z,101406.00
2023-05-05T08:22:01.750Z,101401.20
2023-05-05T08:27:04.944Z,101404.20
2023-05-05T08:32:08.131Z,101398.20
2023-05-05T08:37:11.647Z,101398.40
2023-05-05T08:42:25.461Z,101393.40
2023-05-05T08:47:38.193Z,101392.20
2023-05-05T08:52:53.598Z,101401.40
2023-05-05T08:57:58.483Z,101406.60
2023-05-05T09:03:02.793Z,101404.00
2023-05-05T09:08:10.214Z,101404.80
2023-05-05T09:13:28.885Z,101403.60
2023-05-05T09:18:31.989Z,101413.60
2023-05-05T09:23:35.099Z,101423.40
2023-05-05T09:28:38.828Z,101425.00
2023-05-05T09:33:42.228Z,101421.80
2023-05-05T09:39:06.358Z,101418.00
2023-05-05T09:44:11.417Z,101415.00
2023-05-05T09:49:18.236Z,101420.60
2023-05-05T09:54:30.781Z,101416.80
2023-05-05T09:59:34.327Z,101417.40
2023-05-05T10:04:37.618Z,101415.00
2023-05-05T10:09:41.042Z,101414.60
2023-05-05T10:14:44.581Z,101419.20
2023-05-05T10:19:50.235Z,101414.40
2023-05-05T10:25:03.375Z,101420.20
2023-05-05T10:30:10.527Z,101415.00
2023-05-05T10:35:22.366Z,101420.00
2023-05-05T10:40:26.213Z,101419.60
2023-05-05T10:45:29.717Z,101416.60
2023-05-05T10:51:06.738Z,101409.40
2023-05-05T10:56:26.933Z,101411.00
2023-05-05T11:01:36.565Z,101411.20
2023-05-05T11:06:39.801Z,101404.80
2023-05-05T11:12:04.830Z,101408.00
2023-05-05T11:17:47.899Z,101416.80
2023-05-05T11:23:03.361Z,101405.80
2023-05-05T11:28:15.285Z,101397.60
2023-05-05T11:33:36.190Z,101396.40
2023-05-05T11:38:39.347Z,101388.00
2023-05-05T11:43:43.026Z,101390.20
2023-05-05T11:48:49.226Z,101384.80
2023-05-05T11:53:53.033Z,101383.60
2023-05-05T11:59:11.340Z,101375.60
2023-05-05T12:04:16.272Z,101379.80
2023-05-05T12:09:22.232Z,101386.20
2023-05-05T12:14:26.232Z,101385.80
2023-05-05T12:19:33.492Z,101378.60
2023-05-05T12:24:36.861Z,101374.00
2023-05-05T12:29:40.275Z,101375.40
2023-05-05T12:34:44.087Z,101380.00
2023-05-05T12:39:47.340Z,101375.20
2023-05-05T12:44:50.940Z,101377.40
2023-05-05T12:49:54.030Z,101363.00
2023-05-05T12:54:59.835Z,101372.40
2023-05-05T13:00:15.558Z,101371.60
2023-05-05T13:05:33.318Z,101372.00
2023-05-05T13:10:37.583Z,101369.20
2023-05-05T13:15:41.378Z,101365.00
2023-05-05T13:20:44.721Z,101365.00
2023-05-05T13:25:48.031Z,101357.60
2023-05-05T13:30:51.245Z,101349.40
2023-05-05T13:35:54.572Z,101348.60
2023-05-05T13:40:58.063Z,101341.40
2023-05-05T13:46:16.143Z,101335.40
2023-05-05T13:51:22.534Z,101340.60
2023-05-05T13:56:27.964Z,101337.60
2023-05-05T14:01:31.310Z,101335.20
2023-05-05T14:06:35.923Z,101334.20
2023-05-05T14:11:39.033Z,101331.60
2023-05-05T14:16:42.404Z,101323.60
2023-05-05T14:21:45.648Z,101326.20
2023-05-05T14:26:49.469Z,101320.00
2023-05-05T14:31:52.605Z,101316.40
2023-05-05T14:36:56.100Z,101325.80
2023-05-05T14:41:59.418Z,101330.20
2023-05-05T14:47:02.821Z,101331.60
2023-05-05T14:52:06.150Z,101331.80
2023-05-05T14:57:09.754Z,101330.60
2023-05-05T15:02:12.850Z,101332.60
2023-05-05T15:07:16.103Z,101336.60
2023-05-05T15:12:19.782Z,101334.40
2023-05-05T15:17:23.143Z,101333.60
2023-05-05T15:22:26.631Z,101330.40
2023-05-05T15:27:30.943Z,101332.20
2023-05-05T15:32:34.833Z,101329.20
2023-05-05T15:37:38.149Z,101332.00
2023-05-05T15:42:41.491Z,101325.00
2023-05-05T15:47:44.974Z,101324.60
2023-05-05T15:52:49.902Z,101326.40
2023-05-05T15:57:54.597Z,101325.80
2023-05-05T16:02:57.815Z,101320.60
2023-05-05T16:08:01.120Z,101315.20
2023-05-05T16:13:05.064Z,101323.20
2023-05-05T16:18:08.364Z,101321.60
2023-05-05T16:23:11.495Z,101309.00
2023-05-05T16:28:14.671Z,101310.00
2023-05-05T16:33:17.900Z,101307.80
2023-05-05T16:38:21.079Z,101310.20
2023-05-05T16:43:24.107Z,101310.40
2023-05-05T16:48:27.302Z,101308.00
2023-05-05T16:53:30.509Z,101305.60
2023-05-05T16:58:33.820Z,101309.20
2023-05-05T17:03:38.364Z,101318.00
2023-05-05T17:08:41.678Z,101317.20
2023-05-05T17:13:47.674Z,101313.80
2023-05-05T17:18:51.508Z,101318.40
2023-05-05T17:23:54.774Z,101327.80
2023-05-05T17:28:58.087Z,101326.60
2023-05-05T17:34:01.189Z,101335.20
2023-05-05T17:39:06.104Z,101338.00
2023-05-05T17:44:09.453Z,101336.20
2023-05-05T17:49:12.874Z,101339.20
2023-05-05T17:54:16.500Z,101342.60
2023-05-05T17:59:19.736Z,101347.00
2023-05-05T18:04:22.921Z,101350.20
2023-05-05T18:09:27.050Z,101352.60
2023-05-05T18:14:30.314Z,101360.40
2023-05-05T18:19:33.556Z,101365.80
2023-05-05T18:24:36.771Z,101367.20
2023-05-05T18:29:39.975Z,101371.40
2023-05-05T18:34:43.492Z,101377.40
2023-05-05T18:39:46.662Z,101385.20
2023-05-05T18:44:49.905Z,101387.00
2023-05-05T18:49:53.214Z,101390.40
2023-05-05T18:54:56.429Z,101396.00
2023-05-05T19:00:00.766Z,101395.80
2023-05-05T19:05:05.003Z,101401.60
2023-05-05T19:10:09.631Z,101404.20
2023-05-05T19:15:13.666Z,101408.20
2023-05-05T19:20:17.190Z,101406.20
2023-05-05T19:25:20.396Z,101409.00
2023-05-05T19:30:23.910Z,101405.60
2023-05-05T19:35:28.036Z,101402.80
2023-05-05T19:40:31.346Z,101401.00
2023-05-05T19:45:35.096Z,101402.60
2023-05-05T19:50:38.659Z,101405.80
2023-05-05T19:55:41.927Z,101404.20
2023-05-05T20:00:45.308Z,101413.00
2023-05-05T20:05:48.614Z,101407.40
2023-05-05T20:10:51.932Z,101409.20
2023-05-05T20:15:55.288Z,101413.00
2023-05-05T20:21:01.625Z,101413.20
2023-05-05T20:26:05.969Z,101413.60
2023-05-05T20:31:10.639Z,101414.60
2023-05-05T20:36:13.811Z,101411.40
2023-05-05T20:41:16.928Z,101416.80
2023-05-05T20:46:20.047Z,101421.20
2023-05-05T20:51:23.361Z,101421.60
2023-05-05T20:56:26.752Z,101417.40
2023-05-05T21:01:30.175Z,101422.80
2023-05-05T21:06:33.576Z,101416.40
2023-05-05T21:11:37.292Z,101415.20
2023-05-05T21:16:40.539Z,101423.80
2023-05-05T21:21:44.544Z,101416.80
2023-05-05T21:26:48.045Z,101422.60
2023-05-05T21:31:51.384Z,101416.00
2023-05-05T21:36:54.771Z,101420.60
2023-05-05T21:41:59.214Z,101419.40
2023-05-05T21:47:02.433Z,101411.00
2023-05-05T21:52:05.850Z,101421.20
2023-05-05T21:57:09.262Z,101417.80
2023-05-05T22:02:12.964Z,101423.00
2023-05-05T22:07:16.486Z,101420.80
2023-05-05T22:12:19.697Z,101423.60
2023-05-05T22:17:23.107Z,101420.80
2023-05-05T22:22:26.422Z,101426.80
2023-05-05T22:27:29.731Z,101422.80
2023-05-05T22:32:33.098Z,101421.60
2023-05-05T22:37:36.864Z,101421.60
2023-05-05T22:42:40.189Z,101417.00
2023-05-05T22:47:43.569Z,101415.00
2023-05-05T22:52:47.218Z,101415.00
2023-05-05T22:57:52.778Z,101414.80
2023-05-05T23:02:56.124Z,101415.60
2023-05-05T23:08:01.543Z,101413.00
2023-05-05T23:13:04.979Z,101414.40
2023-05-05T23:18:08.332Z,101410.40
2023-05-05T23:23:11.785Z,101411.60
2023-05-05T23:28:15.095Z,101408.80
2023-05-05T23:33:18.309Z,101410.80
2023-05-05T23:38:22.127Z,101400.80
2023-05-05T23:43:25.440Z,101396.00
2023-05-05T23:48:28.658Z,101392.60
2023-05-05T23:53:31.953Z,101392.20
2023-05-05T23:58:35.282Z,101402.40
